sensor_id;sensor_type;location;lat;lon;timestamp;pressure;altitude;pressure_sealevel;temperature;humidity
71915;BME280;60387;49.994;14.660;2023-08-06T00:00:12;96811.41;;;19.73;63.93
71915;BME280;60387;49.994;14.660;2023-08-06T00:02:46;96800.78;;;19.71;63.81
71915;BME280;60387;49.994;14.660;2023-08-06T00:05:19;96806.66;;;19.70;64.41
71915;BME280;60387;49.994;14.660;2023-08-06T00:07:52;96814.50;;;19.68;63.93
71915;BME280;60387;49.994;14.660;2023-08-06T00:10:26;96812.50;;;19.65;63.94
71915;BME280;60387;49.994;14.660;2023-08-06T00:12:59;96794.06;;;19.69;63.99
71915;BME280;60387;49.994;14.660;2023-08-06T00:15:32;96790.94;;;19.67;64.73
71915;BME280;60387;49.994;14.660;2023-08-06T00:18:05;96788.16;;;19.63;64.52
71915;BME280;60387;49.994;14.660;2023-08-06T00:20:39;96799.91;;;19.64;64.31
71915;BME280;60387;49.994;14.660;2023-08-06T00:23:12;96799.13;;;19.60;64.12
71915;BME280;60387;49.994;14.660;2023-08-06T00:25:46;96788.53;;;19.62;64.76
71915;BME280;60387;49.994;14.660;2023-08-06T00:28:19;96774.75;;;19.58;65.08
71915;BME280;60387;49.994;14.660;2023-08-06T00:30:53;96768.88;;;19.56;64.49
71915;BME280;60387;49.994;14.660;2023-08-06T00:33:27;96759.84;;;19.56;64.64
71915;BME280;60387;49.994;14.660;2023-08-06T00:36:00;96763.38;;;19.56;64.15
71915;BME280;60387;49.994;14.660;2023-08-06T00:38:33;96763.00;;;19.58;64.40
71915;BME280;60387;49.994;14.660;2023-08-06T00:41:07;96753.19;;;19.57;64.26
71915;BME280;60387;49.994;14.660;2023-08-06T00:43:40;96763.41;;;19.60;64.25
71915;BME280;60387;49.994;14.660;2023-08-06T00:46:13;96767.31;;;19.59;64.28
71915;BME280;60387;49.994;14.660;2023-08-06T00:48:47;96766.16;;;19.60;64.35
71915;BME280;60387;49.994;14.660;2023-08-06T00:51:20;96755.53;;;19.58;64.14
71915;BME280;60387;49.994;14.660;2023-08-06T00:53:55;96761.44;;;19.64;63.78
71915;BME280;60387;49.994;14.660;2023-08-06T00:56:29;96755.94;;;19.64;63.77
71915;BME280;60387;49.994;14.660;2023-08-06T00:59:05;96760.72;;;19.67;63.51
71915;BME280;60387;49.994;14.660;2023-08-06T01:01:39;96764.22;;;19.67;63.65
71915;BME280;60387;49.994;14.660;2023-08-06T01:04:12;96755.19;;;19.63;64.40
71915;BME280;60387;49.994;14.660;2023-08-06T01:06:57;96747.72;;;19.60;64.08
71915;BME280;60387;49.994;14.660;2023-08-06T01:12:45;96752.06;;;19.65;64.26
71915;BME280;60387;49.994;14.660;2023-08-06T01:15:24;96729.66;;;19.63;64.53
71915;BME280;60387;49.994;14.660;2023-08-06T01:18:00;96732.38;;;19.59;64.32
71915;BME280;60387;49.994;14.660;2023-08-06T01:20:34;96738.28;;;19.61;64.08
71915;BME280;60387;49.994;14.660;2023-08-06T01:23:07;96746.13;;;19.63;64.15
71915;BME280;60387;49.994;14.660;2023-08-06T01:26:02;96743.00;;;19.61;64.00
71915;BME280;60387;49.994;14.660;2023-08-06T01:28:59;96728.88;;;19.62;63.97
71915;BME280;60387;49.994;14.660;2023-08-06T01:31:36;96724.94;;;19.60;64.28
71915;BME280;60387;49.994;14.660;2023-08-06T01:34:31;96718.66;;;19.56;64.15
71915;BME280;60387;49.994;14.660;2023-08-06T01:37:05;96712.69;;;19.50;64.12
71915;BME280;60387;49.994;14.660;2023-08-06T01:39:42;96706.03;;;19.51;64.53
71915;BME280;60387;49.994;14.660;2023-08-06T01:42:16;96709.91;;;19.47;64.23
71915;BME280;60387;49.994;14.660;2023-08-06T01:44:49;96724.09;;;19.49;64.16
71915;BME280;60387;49.994;14.660;2023-08-06T01:47:22;96730.34;;;19.49;64.37
71915;BME280;60387;49.994;14.660;2023-08-06T01:49:55;96729.56;;;19.49;64.16
71915;BME280;60387;49.994;14.660;2023-08-06T01:52:29;96728.41;;;19.50;63.89
71915;BME280;60387;49.994;14.660;2023-08-06T01:55:02;96719.34;;;19.46;64.11
71915;BME280;60387;49.994;14.660;2023-08-06T01:57:36;96731.53;;;19.48;64.17
71915;BME280;60387;49.994;14.660;2023-08-06T02:00:09;96732.69;;;19.47;64.46
71915;BME280;60387;49.994;14.660;2023-08-06T02:02:43;96729.16;;;19.47;64.28
71915;BME280;60387;49.994;14.660;2023-08-06T02:05:16;96721.69;;;19.44;64.32
71915;BME280;60387;49.994;14.660;2023-08-06T02:07:49;96709.09;;;19.39;64.67
71915;BME280;60387;49.994;14.660;2023-08-06T02:10:22;96707.53;;;19.38;64.62
71915;BME280;60387;49.994;14.660;2023-08-06T02:12:56;96704.81;;;19.42;64.66
71915;BME280;60387;49.994;14.660;2023-08-06T02:15:29;96704.41;;;19.40;64.95
71915;BME280;60387;49.994;14.660;2023-08-06T02:18:02;96707.91;;;19.40;64.76
71915;BME280;60387;49.994;14.660;2023-08-06T02:20:36;96708.31;;;19.39;64.21
71915;BME280;60387;49.994;14.660;2023-08-06T02:23:09;96709.91;;;19.40;64.50
71915;BME280;60387;49.994;14.660;2023-08-06T02:25:42;96713.81;;;19.39;64.69
71915;BME280;60387;49.994;14.660;2023-08-06T02:28:15;96707.91;;;19.40;64.64
71915;BME280;60387;49.994;14.660;2023-08-06T02:30:52;96692.97;;;19.34;64.40
71915;BME280;60387;49.994;14.660;2023-08-06T02:33:26;96699.66;;;19.37;64.53
71915;BME280;60387;49.994;14.660;2023-08-06T02:36:00;96694.94;;;19.34;64.25
71915;BME280;60387;49.994;14.660;2023-08-06T02:38:34;96703.56;;;19.36;64.56
71915;BME280;60387;49.994;14.660;2023-08-06T02:41:07;96697.31;;;19.35;64.57
71915;BME280;60387;49.994;14.660;2023-08-06T02:43:40;96691.78;;;19.32;64.52
71915;BME280;60387;49.994;14.660;2023-08-06T02:46:14;96700.44;;;19.34;64.48
71915;BME280;60387;49.994;14.660;2023-08-06T02:48:47;96700.03;;;19.32;64.43
71915;BME280;60387;49.994;14.660;2023-08-06T02:51:20;96687.09;;;19.36;64.14
71915;BME280;60387;49.994;14.660;2023-08-06T02:53:53;96687.91;;;19.36;64.18
71915;BME280;60387;49.994;14.660;2023-08-06T02:56:27;96685.53;;;19.35;64.50
71915;BME280;60387;49.994;14.660;2023-08-06T02:59:00;96685.91;;;19.37;64.49
71915;BME280;60387;49.994;14.660;2023-08-06T03:01:33;96685.16;;;19.36;64.53
71915;BME280;60387;49.994;14.660;2023-08-06T03:04:07;96677.31;;;19.38;64.64
71915;BME280;60387;49.994;14.660;2023-08-06T03:06:40;96682.78;;;19.35;64.36
71915;BME280;60387;49.994;14.660;2023-08-06T03:09:13;96671.75;;;19.31;64.55
71915;BME280;60387;49.994;14.660;2023-08-06T03:11:47;96658.00;;;19.28;64.52
71915;BME280;60387;49.994;14.660;2023-08-06T03:14:20;96648.19;;;19.27;64.67
71915;BME280;60387;49.994;14.660;2023-08-06T03:16:53;96659.59;;;19.29;64.62
71915;BME280;60387;49.994;14.660;2023-08-06T03:19:26;96654.88;;;19.29;65.10
71915;BME280;60387;49.994;14.660;2023-08-06T03:22:00;96644.66;;;19.23;64.84
71915;BME280;60387;49.994;14.660;2023-08-06T03:24:33;96650.16;;;19.23;64.82
71915;BME280;60387;49.994;14.660;2023-08-06T03:27:06;96648.97;;;19.24;64.86
71915;BME280;60387;49.994;14.660;2023-08-06T03:29:40;96649.75;;;19.24;65.01
71915;BME280;60387;49.994;14.660;2023-08-06T03:32:13;96647.00;;;19.24;65.09
71915;BME280;60387;49.994;14.660;2023-08-06T03:34:46;96646.97;;;19.21;64.78
71915;BME280;60387;49.994;14.660;2023-08-06T03:37:19;96639.53;;;19.21;65.03
71915;BME280;60387;49.994;14.660;2023-08-06T03:39:53;96647.41;;;19.23;64.98
71915;BME280;60387;49.994;14.660;2023-08-06T03:42:26;96640.75;;;19.24;64.91
71915;BME280;60387;49.994;14.660;2023-08-06T03:44:59;96640.75;;;19.24;64.72
71915;BME280;60387;49.994;14.660;2023-08-06T03:47:32;96637.59;;;19.22;64.62
71915;BME280;60387;49.994;14.660;2023-08-06T03:50:06;96639.56;;;19.25;64.52
71915;BME280;60387;49.994;14.660;2023-08-06T03:52:39;96634.06;;;19.25;64.82
71915;BME280;60387;49.994;14.660;2023-08-06T03:55:13;96642.31;;;19.25;64.75
71915;BME280;60387;49.994;14.660;2023-08-06T03:57:46;96627.34;;;19.19;64.57
71915;BME280;60387;49.994;14.660;2023-08-06T04:00:19;96611.28;;;19.21;64.44
71915;BME280;60387;49.994;14.660;2023-08-06T04:02:52;96615.63;;;19.22;64.21
71915;BME280;60387;49.994;14.660;2023-08-06T04:05:26;96604.25;;;19.23;64.73
71915;BME280;60387;49.994;14.660;2023-08-06T04:07:59;96588.03;;;19.08;64.88
71915;BME280;60387;49.994;14.660;2023-08-06T04:10:32;96608.16;;;19.22;64.56
71915;BME280;60387;49.994;14.660;2023-08-06T04:13:05;96607.78;;;19.24;64.59
71915;BME280;60387;49.994;14.660;2023-08-06T04:15:39;96603.88;;;19.25;64.73
71915;BME280;60387;49.994;14.660;2023-08-06T04:18:12;96597.19;;;19.22;65.00
71915;BME280;60387;49.994;14.660;2023-08-06T04:20:46;96594.84;;;19.24;64.90
71915;BME280;60387;49.994;14.660;2023-08-06T04:23:19;96599.53;;;19.20;64.68
71915;BME280;60387;49.994;14.660;2023-08-06T04:25:56;96609.38;;;19.25;64.99
71915;BME280;60387;49.994;14.660;2023-08-06T04:28:30;96609.34;;;19.21;65.04
71915;BME280;60387;49.994;14.660;2023-08-06T04:31:03;96616.03;;;19.24;64.80
71915;BME280;60387;49.994;14.660;2023-08-06T04:33:36;96605.44;;;19.26;64.79
71915;BME280;60387;49.994;14.660;2023-08-06T04:36:09;96605.84;;;19.28;64.80
71915;BME280;60387;49.994;14.660;2023-08-06T04:38:43;96598.00;;;19.30;64.89
71915;BME280;60387;49.994;14.660;2023-08-06T04:41:16;96590.94;;;19.29;64.78
71915;BME280;60387;49.994;14.660;2023-08-06T04:43:49;96583.88;;;19.28;64.78
71915;BME280;60387;49.994;14.660;2023-08-06T04:46:23;96587.03;;;19.26;64.85
71915;BME280;60387;49.994;14.660;2023-08-06T04:48:56;96581.13;;;19.28;64.85
71915;BME280;60387;49.994;14.660;2023-08-06T04:51:29;96575.63;;;19.28;64.95
71915;BME280;60387;49.994;14.660;2023-08-06T04:54:02;96580.38;;;19.31;64.82
71915;BME280;60387;49.994;14.660;2023-08-06T04:56:36;96583.88;;;19.31;64.52
71915;BME280;60387;49.994;14.660;2023-08-06T04:59:09;96554.41;;;19.21;64.83
71915;BME280;60387;49.994;14.660;2023-08-06T05:01:42;96578.41;;;19.35;64.38
71915;BME280;60387;49.994;14.660;2023-08-06T05:04:15;96573.31;;;19.33;64.53
71915;BME280;60387;49.994;14.660;2023-08-06T05:06:49;96573.75;;;19.39;64.60
71915;BME280;60387;49.994;14.660;2023-08-06T05:09:22;96566.66;;;19.38;64.61
71915;BME280;60387;49.994;14.660;2023-08-06T05:11:55;96578.84;;;19.40;64.48
71915;BME280;60387;49.994;14.660;2023-08-06T05:14:28;96581.19;;;19.38;64.56
71915;BME280;60387;49.994;14.660;2023-08-06T05:17:02;96589.44;;;19.42;64.40
71915;BME280;60387;49.994;14.660;2023-08-06T05:19:35;96559.56;;;19.30;64.35
71915;BME280;60387;49.994;14.660;2023-08-06T05:22:08;96584.00;;;19.49;64.35
71915;BME280;60387;49.994;14.660;2023-08-06T05:24:42;96581.63;;;19.47;64.64
71915;BME280;60387;49.994;14.660;2023-08-06T05:27:15;96573.00;;;19.49;64.35
71915;BME280;60387;49.994;14.660;2023-08-06T05:29:48;96575.34;;;19.54;64.39
71915;BME280;60387;49.994;14.660;2023-08-06T05:32:22;96579.69;;;19.55;64.24
71915;BME280;60387;49.994;14.660;2023-08-06T05:34:55;96574.97;;;19.52;64.42
71915;BME280;60387;49.994;14.660;2023-08-06T05:37:28;96578.53;;;19.56;64.39
71915;BME280;60387;49.994;14.660;2023-08-06T05:40:02;96575.78;;;19.56;64.60
71915;BME280;60387;49.994;14.660;2023-08-06T05:42:35;96571.03;;;19.53;64.70
71915;BME280;60387;49.994;14.660;2023-08-06T05:45:09;96574.97;;;19.52;64.86
71915;BME280;60387;49.994;14.660;2023-08-06T05:47:42;96582.06;;;19.56;64.50
71915;BME280;60387;49.994;14.660;2023-08-06T05:50:15;96584.00;;;19.59;64.47
71915;BME280;60387;49.994;14.660;2023-08-06T05:52:49;96583.63;;;19.61;64.30
71915;BME280;60387;49.994;14.660;2023-08-06T05:55:22;96582.84;;;19.64;64.29
71915;BME280;60387;49.994;14.660;2023-08-06T05:57:55;96573.84;;;19.67;64.12
71915;BME280;60387;49.994;14.660;2023-08-06T06:00:28;96571.50;;;19.69;64.35
71915;BME280;60387;49.994;14.660;2023-08-06T06:03:02;96567.97;;;19.72;64.20
71915;BME280;60387;49.994;14.660;2023-08-06T06:05:37;96563.28;;;19.76;64.26
71915;BME280;60387;49.994;14.660;2023-08-06T06:08:11;96565.63;;;19.80;64.21
71915;BME280;60387;49.994;14.660;2023-08-06T06:10:44;96569.56;;;19.79;64.22
71915;BME280;60387;49.994;14.660;2023-08-06T06:13:17;96580.22;;;19.88;63.97
71915;BME280;60387;49.994;14.660;2023-08-06T06:15:54;96572.72;;;19.88;63.87
71915;BME280;60387;49.994;14.660;2023-08-06T06:18:27;96577.06;;;19.93;64.01
71915;BME280;60387;49.994;14.660;2023-08-06T06:21:01;96575.13;;;19.93;63.80
71915;BME280;60387;49.994;14.660;2023-08-06T06:23:34;96575.50;;;19.95;63.85
71915;BME280;60387;49.994;14.660;2023-08-06T06:26:07;96578.25;;;19.99;63.81
71915;BME280;60387;49.994;14.660;2023-08-06T06:28:40;96567.66;;;19.97;63.68
71915;BME280;60387;49.994;14.660;2023-08-06T06:31:14;96564.50;;;19.95;63.74
71915;BME280;60387;49.994;14.660;2023-08-06T06:33:47;96570.41;;;20.01;64.17
71915;BME280;60387;49.994;14.660;2023-08-06T06:36:20;96560.22;;;20.01;63.67
71915;BME280;60387;49.994;14.660;2023-08-06T06:38:53;96567.69;;;20.04;63.63
71915;BME280;60387;49.994;14.660;2023-08-06T06:41:27;96563.78;;;20.05;63.56
71915;BME280;60387;49.994;14.660;2023-08-06T06:44:00;96570.47;;;20.11;63.73
71915;BME280;60387;49.994;14.660;2023-08-06T06:46:33;96565.78;;;20.12;63.54
71915;BME280;60387;49.994;14.660;2023-08-06T06:49:06;96562.63;;;20.20;63.44
71915;BME280;60387;49.994;14.660;2023-08-06T06:51:40;96560.25;;;20.22;63.35
71915;BME280;60387;49.994;14.660;2023-08-06T06:54:13;96561.84;;;20.30;63.45
71915;BME280;60387;49.994;14.660;2023-08-06T06:56:46;96552.41;;;20.31;63.55
71915;BME280;60387;49.994;14.660;2023-08-06T06:59:20;96551.66;;;20.31;63.74
71915;BME280;60387;49.994;14.660;2023-08-06T07:01:53;96554.00;;;20.32;63.47
71915;BME280;60387;49.994;14.660;2023-08-06T07:04:26;96542.19;;;20.25;63.55
71915;BME280;60387;49.994;14.660;2023-08-06T07:06:59;96562.66;;;20.41;63.11
71915;BME280;60387;49.994;14.660;2023-08-06T07:09:33;96556.75;;;20.43;63.62
71915;BME280;60387;49.994;14.660;2023-08-06T07:12:06;96571.69;;;20.52;63.34
71915;BME280;60387;49.994;14.660;2023-08-06T07:14:40;96564.63;;;20.55;63.25
71915;BME280;60387;49.994;14.660;2023-08-06T07:17:13;96566.19;;;20.59;63.20
71915;BME280;60387;49.994;14.660;2023-08-06T07:19:46;96555.56;;;20.54;63.19
71915;BME280;60387;49.994;14.660;2023-08-06T07:22:19;96567.78;;;20.60;62.97
71915;BME280;60387;49.994;14.660;2023-08-06T07:24:53;96563.44;;;20.59;62.95
71915;BME280;60387;49.994;14.660;2023-08-06T07:27:26;96566.59;;;20.68;63.31
71915;BME280;60387;49.994;14.660;2023-08-06T07:29:59;96562.66;;;20.76;63.16
71915;BME280;60387;49.994;14.660;2023-08-06T07:32:32;96563.81;;;20.82;62.93
71915;BME280;60387;49.994;14.660;2023-08-06T07:35:06;96555.56;;;20.79;62.93
71915;BME280;60387;49.994;14.660;2023-08-06T07:37:39;96559.50;;;20.81;63.32
71915;BME280;60387;49.994;14.660;2023-08-06T07:40:13;96556.34;;;20.79;63.01
71915;BME280;60387;49.994;14.660;2023-08-06T07:42:46;96546.13;;;20.76;63.02
71915;BME280;60387;49.994;14.660;2023-08-06T07:45:19;96539.44;;;20.77;62.76
71915;BME280;60387;49.994;14.660;2023-08-06T07:47:53;96542.59;;;20.79;63.01
71915;BME280;60387;49.994;14.660;2023-08-06T07:50:26;96535.91;;;20.80;62.78
71915;BME280;60387;49.994;14.660;2023-08-06T07:52:59;96534.72;;;20.74;62.70
71915;BME280;60387;49.994;14.660;2023-08-06T07:55:32;96530.00;;;20.68;62.43
71915;BME280;60387;49.994;14.660;2023-08-06T07:58:06;96538.66;;;20.73;63.05
71915;BME280;60387;49.994;14.660;2023-08-06T08:00:40;96539.84;;;20.65;62.91
71915;BME280;60387;49.994;14.660;2023-08-06T08:03:14;96544.56;;;20.68;62.87
71915;BME280;60387;49.994;14.660;2023-08-06T08:05:48;96539.06;;;20.68;63.23
71915;BME280;60387;49.994;14.660;2023-08-06T08:08:21;96541.03;;;20.71;63.17
71915;BME280;60387;49.994;14.660;2023-08-06T08:10:55;96534.34;;;20.72;62.97
71915;BME280;60387;49.994;14.660;2023-08-06T08:13:28;96537.88;;;20.69;62.94
71915;BME280;60387;49.994;14.660;2023-08-06T08:16:02;96519.41;;;20.66;63.07
71915;BME280;60387;49.994;14.660;2023-08-06T08:18:35;96533.16;;;20.70;63.23
71915;BME280;60387;49.994;14.660;2023-08-06T08:21:08;96532.75;;;20.71;63.25
71915;BME280;60387;49.994;14.660;2023-08-06T08:23:42;96533.56;;;20.75;63.07
71915;BME280;60387;49.994;14.660;2023-08-06T08:26:15;96532.75;;;20.82;63.04
71915;BME280;60387;49.994;14.660;2023-08-06T08:28:48;96516.63;;;20.77;62.88
71915;BME280;60387;49.994;14.660;2023-08-06T08:31:22;96522.53;;;20.82;62.97
71915;BME280;60387;49.994;14.660;2023-08-06T08:33:55;96521.75;;;20.85;63.18
71915;BME280;60387;49.994;14.660;2023-08-06T08:36:28;96517.00;;;20.82;62.90
71915;BME280;60387;49.994;14.660;2023-08-06T08:39:02;96521.75;;;20.85;63.08
71915;BME280;60387;49.994;14.660;2023-08-06T08:41:38;96512.69;;;20.85;62.87
71915;BME280;60387;49.994;14.660;2023-08-06T08:44:13;96514.66;;;20.84;62.92
71915;BME280;60387;49.994;14.660;2023-08-06T08:46:49;96506.41;;;20.81;62.79
71915;BME280;60387;49.994;14.660;2023-08-06T08:49:23;96507.59;;;20.83;62.80
71915;BME280;60387;49.994;14.660;2023-08-06T08:51:59;96506.81;;;20.79;62.63
71915;BME280;60387;49.994;14.660;2023-08-06T08:54:33;96491.09;;;20.76;62.89
71915;BME280;60387;49.994;14.660;2023-08-06T08:57:07;96501.28;;;20.83;62.62
71915;BME280;60387;49.994;14.660;2023-08-06T08:59:40;96506.03;;;20.86;62.51
71915;BME280;60387;49.994;14.660;2023-08-06T09:02:14;96500.50;;;20.82;62.71
71915;BME280;60387;49.994;14.660;2023-08-06T09:04:48;96495.41;;;20.81;62.35
71915;BME280;60387;49.994;14.660;2023-08-06T09:07:23;96488.72;;;20.78;62.63
71915;BME280;60387;49.994;14.660;2023-08-06T09:09:57;96494.22;;;20.78;62.37
71915;BME280;60387;49.994;14.660;2023-08-06T09:12:31;96483.59;;;20.73;62.52
71915;BME280;60387;49.994;14.660;2023-08-06T09:15:05;96480.09;;;20.62;62.59
71915;BME280;60387;49.994;14.660;2023-08-06T09:17:38;96487.59;;;20.58;62.29
71915;BME280;60387;49.994;14.660;2023-08-06T09:20:12;96488.34;;;20.55;62.31
71915;BME280;60387;49.994;14.660;2023-08-06T09:22:46;96487.59;;;20.55;62.80
71915;BME280;60387;49.994;14.660;2023-08-06T09:25:23;96495.03;;;20.58;62.89
71915;BME280;60387;49.994;14.660;2023-08-06T09:27:57;96491.91;;;20.56;62.76
71915;BME280;60387;49.994;14.660;2023-08-06T09:30:36;96490.72;;;20.53;62.85
71915;BME280;60387;49.994;14.660;2023-08-06T09:33:09;96485.22;;;20.53;63.12
71915;BME280;60387;49.994;14.660;2023-08-06T09:35:43;96488.75;;;20.57;63.10
71915;BME280;60387;49.994;14.660;2023-08-06T09:38:16;96484.81;;;20.65;63.41
71915;BME280;60387;49.994;14.660;2023-08-06T09:40:49;96482.03;;;20.76;63.74
71915;BME280;60387;49.994;14.660;2023-08-06T09:43:22;96489.50;;;20.86;63.50
71915;BME280;60387;49.994;14.660;2023-08-06T09:45:56;96474.97;;;20.89;63.38
71915;BME280;60387;49.994;14.660;2023-08-06T09:48:29;96483.19;;;20.96;63.42
71915;BME280;60387;49.994;14.660;2023-08-06T09:51:03;96482.81;;;20.97;63.19
71915;BME280;60387;49.994;14.660;2023-08-06T09:53:37;96476.09;;;20.98;62.83
71915;BME280;60387;49.994;14.660;2023-08-06T09:56:10;96470.59;;;20.98;62.50
71915;BME280;60387;49.994;14.660;2023-08-06T09:58:46;96476.09;;;21.02;62.82
71915;BME280;60387;49.994;14.660;2023-08-06T10:01:21;96472.16;;;21.03;62.38
71915;BME280;60387;49.994;14.660;2023-08-06T10:03:55;96480.84;;;21.01;62.04
71915;BME280;60387;49.994;14.660;2023-08-06T10:06:34;96472.94;;;21.03;61.90
71915;BME280;60387;49.994;14.660;2023-08-06T10:09:08;96469.81;;;21.01;62.03
71915;BME280;60387;49.994;14.660;2023-08-06T10:11:42;96464.34;;;20.94;61.85
71915;BME280;60387;49.994;14.660;2023-08-06T10:14:28;96465.91;;;20.95;62.13
71915;BME280;60387;49.994;14.660;2023-08-06T10:17:03;96467.09;;;20.91;62.10
71915;BME280;60387;49.994;14.660;2023-08-06T10:19:37;96466.66;;;20.96;62.41
71915;BME280;60387;49.994;14.660;2023-08-06T10:22:15;96460.38;;;20.95;62.23
71915;BME280;60387;49.994;14.660;2023-08-06T10:24:54;96469.81;;;21.01;62.39
71915;BME280;60387;49.994;14.660;2023-08-06T10:33:03;96457.97;;;21.11;62.25
71915;BME280;60387;49.994;14.660;2023-08-06T10:35:38;96465.03;;;21.19;62.18
71915;BME280;60387;49.994;14.660;2023-08-06T10:38:25;96463.44;;;21.22;62.11
71915;BME280;60387;49.994;14.660;2023-08-06T10:43:36;96467.34;;;21.28;61.94
71915;BME280;60387;49.994;14.660;2023-08-06T10:46:10;96462.63;;;21.28;61.70
71915;BME280;60387;49.994;14.660;2023-08-06T10:48:45;96459.44;;;21.37;61.68
71915;BME280;60387;49.994;14.660;2023-08-06T10:51:18;96455.50;;;21.34;61.66
71915;BME280;60387;49.994;14.660;2023-08-06T10:53:52;96454.69;;;21.41;61.63
71915;BME280;60387;49.994;14.660;2023-08-06T10:56:25;96463.31;;;21.46;61.68
71915;BME280;60387;49.994;14.660;2023-08-06T10:58:58;96452.69;;;21.48;61.53
71915;BME280;60387;49.994;14.660;2023-08-06T11:01:33;96460.91;;;21.55;61.79
71915;BME280;60387;49.994;14.660;2023-08-06T11:04:06;96442.78;;;21.58;61.26
71915;BME280;60387;49.994;14.660;2023-08-06T11:06:42;96452.19;;;21.67;61.08
71915;BME280;60387;49.994;14.660;2023-08-06T11:09:15;96454.16;;;21.70;60.20
71915;BME280;60387;49.994;14.660;2023-08-06T11:11:49;96453.72;;;21.75;60.12
71915;BME280;60387;49.994;14.660;2023-08-06T11:14:22;96456.47;;;21.75;60.54
71915;BME280;60387;49.994;14.660;2023-08-06T11:16:55;96452.97;;;21.75;60.16
71915;BME280;60387;49.994;14.660;2023-08-06T11:19:28;96450.97;;;21.75;59.85
71915;BME280;60387;49.994;14.660;2023-08-06T11:22:02;96445.06;;;21.77;59.79
71915;BME280;60387;49.994;14.660;2023-08-06T11:24:37;96448.66;;;21.70;59.74
71915;BME280;60387;49.994;14.660;2023-08-06T11:27:15;96449.88;;;21.66;59.99
71915;BME280;60387;49.994;14.660;2023-08-06T11:29:48;96470.34;;;21.65;59.53
71915;BME280;60387;49.994;14.660;2023-08-06T11:32:22;96461.31;;;21.50;59.28
71915;BME280;60387;49.994;14.660;2023-08-06T11:34:55;96464.91;;;21.44;59.75
71915;BME280;60387;49.994;14.660;2023-08-06T11:37:29;96464.53;;;21.38;59.62
71915;BME280;60387;49.994;14.660;2023-08-06T11:40:08;96475.56;;;21.38;60.07
71915;BME280;60387;49.994;14.660;2023-08-06T11:42:41;96475.16;;;21.43;60.31
71915;BME280;60387;49.994;14.660;2023-08-06T11:45:14;96467.25;;;21.52;60.07
71915;BME280;60387;49.994;14.660;2023-08-06T11:47:50;96479.03;;;21.56;60.21
71915;BME280;60387;49.994;14.660;2023-08-06T11:50:26;96465.97;;;21.64;60.00
71915;BME280;60387;49.994;14.660;2023-08-06T11:53:00;96467.13;;;21.73;60.67
71915;BME280;60387;49.994;14.660;2023-08-06T11:55:35;96478.88;;;21.84;59.77
71915;BME280;60387;49.994;14.660;2023-08-06T11:58:09;96476.47;;;21.90;59.57
71915;BME280;60387;49.994;14.660;2023-08-06T12:00:43;96476.44;;;21.93;59.77
71915;BME280;60387;49.994;14.660;2023-08-06T12:03:19;96476.06;;;21.91;59.62
71915;BME280;60387;49.994;14.660;2023-08-06T12:05:53;96477.66;;;21.92;59.52
71915;BME280;60387;49.994;14.660;2023-08-06T12:08:27;96473.72;;;21.90;59.63
71915;BME280;60387;49.994;14.660;2023-08-06T12:11:00;96477.28;;;21.90;59.88
71915;BME280;60387;49.994;14.660;2023-08-06T12:13:33;96471.75;;;21.90;59.26
71915;BME280;60387;49.994;14.660;2023-08-06T12:16:07;96478.03;;;21.94;59.53
71915;BME280;60387;49.994;14.660;2023-08-06T12:18:40;96481.97;;;21.93;58.92
71915;BME280;60387;49.994;14.660;2023-08-06T12:21:13;96471.75;;;21.90;59.41
71915;BME280;60387;49.994;14.660;2023-08-06T12:23:46;96473.69;;;21.93;59.43
71915;BME280;60387;49.994;14.660;2023-08-06T12:26:20;96470.91;;;22.00;58.96
71915;BME280;60387;49.994;14.660;2023-08-06T12:28:53;96473.25;;;22.02;59.24
71915;BME280;60387;49.994;14.660;2023-08-06T12:31:26;96473.97;;;22.09;58.56
71915;BME280;60387;49.994;14.660;2023-08-06T12:33:59;96466.13;;;22.08;58.75
71915;BME280;60387;49.994;14.660;2023-08-06T12:36:33;96466.16;;;22.04;59.33
71915;BME280;60387;49.994;14.660;2023-08-06T12:39:06;96468.88;;;22.11;59.08
71915;BME280;60387;49.994;14.660;2023-08-06T12:41:39;96475.13;;;22.15;58.42
71915;BME280;60387;49.994;14.660;2023-08-06T12:44:12;96468.41;;;22.16;59.18
71915;BME280;60387;49.994;14.660;2023-08-06T12:46:46;96475.41;;;22.28;59.32
71915;BME280;60387;49.994;14.660;2023-08-06T12:49:20;96480.47;;;22.36;58.84
71915;BME280;60387;49.994;14.660;2023-08-06T12:51:54;96482.41;;;22.46;58.78
71915;BME280;60387;49.994;14.660;2023-08-06T12:54:28;96475.22;;;22.52;58.91
71915;BME280;60387;49.994;14.660;2023-08-06T12:57:02;96473.56;;;22.62;58.99
71915;BME280;60387;49.994;14.660;2023-08-06T12:59:35;96469.16;;;22.71;58.79
71915;BME280;60387;49.994;14.660;2023-08-06T13:02:08;96465.88;;;22.83;58.61
71915;BME280;60387;49.994;14.660;2023-08-06T13:04:42;96477.44;;;23.08;58.85
71915;BME280;60387;49.994;14.660;2023-08-06T13:07:15;96481.16;;;23.28;58.79
71915;BME280;60387;49.994;14.660;2023-08-06T13:09:48;96480.91;;;23.49;58.25
71915;BME280;60387;49.994;14.660;2023-08-06T13:12:21;96479.94;;;23.62;58.08
71915;BME280;60387;49.994;14.660;2023-08-06T13:14:55;96480.16;;;23.75;57.90
71915;BME280;60387;49.994;14.660;2023-08-06T13:17:28;96482.38;;;23.87;58.03
71915;BME280;60387;49.994;14.660;2023-08-06T13:20:01;96481.09;;;23.95;57.52
71915;BME280;60387;49.994;14.660;2023-08-06T13:22:35;96480.59;;;24.03;56.87
71915;BME280;60387;49.994;14.660;2023-08-06T13:25:08;96484.13;;;24.04;56.15
71915;BME280;60387;49.994;14.660;2023-08-06T13:27:41;96483.41;;;24.00;56.10
71915;BME280;60387;49.994;14.660;2023-08-06T13:30:15;96487.78;;;23.97;56.51
71915;BME280;60387;49.994;14.660;2023-08-06T13:32:48;96484.97;;;24.01;55.58
71915;BME280;60387;49.994;14.660;2023-08-06T13:35:22;96487.28;;;24.02;55.78